createdAt,value
2022-08-17T09:53:31.951Z,585.00
2022-08-17T09:54:40.177Z,691.88
2022-08-17T09:55:31.485Z,787.50
2022-08-17T09:56:31.468Z,821.25
2022-08-17T09:57:32.367Z,826.88
2022-08-17T09:58:31.451Z,826.88
2022-08-17T09:59:37.112Z,810.00
2022-08-17T10:00:31.411Z,815.63
2022-08-17T10:01:31.539Z,810.00
2022-08-17T10:02:31.395Z,810.00
2022-08-17T10:03:31.380Z,826.88
2022-08-17T10:04:31.365Z,821.25
2022-08-17T10:05:31.341Z,855.00
2022-08-17T10:06:31.339Z,928.13
2022-08-17T10:07:31.315Z,1001.25
2022-08-17T10:08:31.316Z,1046.25
2022-08-17T10:09:31.288Z,995.63
2022-08-17T10:10:32.422Z,939.38
2022-08-17T10:11:33.445Z,905.63
2022-08-17T10:12:31.250Z,928.13
2022-08-17T10:13:31.447Z,990.00
2022-08-17T10:14:36.406Z,1006.88
2022-08-17T10:15:31.226Z,956.25
2022-08-17T10:16:31.205Z,883.13
2022-08-17T10:17:31.189Z,826.88
2022-08-17T10:18:33.145Z,742.50
2022-08-17T10:19:31.177Z,675.00
2022-08-17T10:20:31.161Z,658.13
2022-08-17T10:21:31.146Z,658.13
2022-08-17T10:22:35.259Z,646.88
2022-08-17T10:23:31.124Z,568.13
2022-08-17T10:24:31.146Z,545.63
2022-08-17T10:25:49.044Z,517.50
2022-08-17T10:26:40.330Z,506.25
2022-08-17T10:39:07.392Z,613.13
2022-08-17T10:40:07.416Z,669.38
2022-08-17T10:41:07.353Z,708.75
2022-08-17T10:42:07.343Z,759.38
2022-08-17T10:43:07.327Z,781.88
2022-08-17T10:44:38.932Z,776.25
2022-08-17T10:45:07.303Z,781.88
2022-08-17T10:46:27.717Z,787.50
2022-08-17T10:47:07.294Z,776.25
2022-08-17T10:48:07.638Z,781.88
2022-08-17T10:49:07.257Z,798.75
2022-08-17T10:50:07.247Z,826.88
2022-08-17T10:51:07.228Z,860.63
2022-08-17T10:52:07.213Z,888.75
2022-08-17T10:53:07.220Z,922.50
2022-08-17T10:54:07.198Z,950.63
2022-08-17T10:55:07.183Z,956.25
2022-08-17T10:56:07.170Z,950.63
2022-08-17T10:57:07.160Z,950.63
2022-08-17T10:58:07.161Z,961.88
2022-08-17T10:59:07.138Z,967.50
2022-08-17T11:00:07.118Z,984.38
2022-08-17T11:01:07.161Z,1018.13
2022-08-17T11:02:07.109Z,1074.38
2022-08-17T11:03:07.082Z,1091.25
2022-08-17T11:04:07.082Z,1068.75
2022-08-17T11:05:07.074Z,1040.63
2022-08-17T11:06:07.060Z,1012.50
2022-08-17T11:07:07.049Z,984.38
2022-08-17T11:08:07.039Z,967.50
2022-08-17T11:09:07.017Z,945.00
2022-08-17T11:10:07.005Z,916.88
2022-08-17T11:11:06.993Z,871.88
2022-08-17T11:12:07.007Z,815.63
2022-08-17T11:13:06.981Z,765.00
2022-08-17T11:14:06.959Z,720.00
2022-08-17T11:15:06.959Z,691.88
2022-08-17T11:16:08.550Z,691.88
2022-08-17T11:17:06.926Z,697.50
2022-08-17T11:18:06.963Z,714.38
2022-08-17T11:19:06.918Z,725.63
2022-08-17T11:20:06.904Z,731.25
2022-08-17T11:21:06.883Z,731.25
2022-08-17T11:22:06.892Z,736.88
2022-08-17T11:23:06.879Z,736.88
2022-08-17T11:24:06.848Z,742.50
2022-08-17T11:25:06.837Z,742.50
2022-08-17T11:26:06.825Z,748.13
2022-08-17T11:27:06.823Z,759.38
2022-08-17T11:28:06.815Z,759.38
2022-08-17T11:29:06.799Z,781.88
2022-08-17T11:30:06.791Z,787.50
2022-08-17T11:31:06.771Z,810.00
2022-08-17T11:32:06.769Z,826.88
2022-08-17T11:33:07.293Z,849.38
2022-08-17T11:34:06.736Z,866.25
2022-08-17T11:35:06.723Z,894.38
2022-08-17T11:36:06.715Z,922.50
2022-08-17T11:37:06.716Z,956.25
2022-08-17T11:38:10.841Z,1006.88
2022-08-17T11:39:06.677Z,1046.25
2022-08-17T11:40:06.755Z,1080.00
2022-08-17T11:41:06.657Z,1136.25
2022-08-17T11:42:06.646Z,1102.50
2022-08-17T11:43:06.657Z,1102.50
2022-08-17T11:44:06.622Z,1096.88
2022-08-17T11:45:06.621Z,1091.25
2022-08-17T11:46:06.601Z,1068.75
2022-08-17T11:47:06.598Z,1068.75
2022-08-17T11:48:27.295Z,1057.50
2022-08-17T11:49:06.567Z,1068.75
2022-08-17T11:50:06.568Z,1102.50
2022-08-17T11:51:06.552Z,1023.75
2022-08-17T11:52:06.545Z,1023.75
2022-08-17T11:53:06.524Z,1029.38
2022-08-17T11:54:31.519Z,1012.50
2022-08-17T11:55:31.791Z,888.75
2022-08-17T11:56:06.492Z,810.00
2022-08-17T11:57:06.490Z,748.13
2022-08-17T11:58:06.482Z,652.50
2022-08-17T11:59:06.482Z,596.25
2022-08-17T12:00:06.461Z,545.63
2022-08-17T12:01:06.440Z,523.13
2022-08-17T12:02:06.434Z,495.00
2022-08-17T12:03:06.480Z,556.88
2022-08-17T12:04:06.430Z,585.00
2022-08-17T12:05:09.632Z,675.00
2022-08-17T12:06:06.387Z,686.25
2022-08-17T12:07:06.386Z,686.25
2022-08-17T12:08:06.367Z,646.88
2022-08-17T12:09:06.377Z,601.88
2022-08-17T12:10:06.356Z,562.50
2022-08-17T12:11:06.343Z,601.88
2022-08-17T12:12:13.263Z,618.75
2022-08-17T12:13:06.320Z,601.88
2022-08-17T12:14:06.326Z,607.50
2022-08-17T12:15:10.750Z,618.75
2022-08-17T12:16:06.293Z,646.88
2022-08-17T12:17:06.272Z,675.00
2022-08-17T12:18:06.271Z,686.25
2022-08-17T12:19:06.266Z,630.00
2022-08-17T12:20:06.253Z,562.50
2022-08-17T12:21:06.231Z,630.00
2022-08-17T12:22:06.229Z,601.88
2022-08-17T12:23:06.212Z,551.25
2022-08-17T12:24:06.223Z,607.50
2022-08-17T12:25:06.200Z,585.00
2022-08-17T12:26:06.201Z,607.50
2022-08-17T12:27:06.181Z,607.50
2022-08-17T12:28:07.618Z,607.50
2022-08-17T12:29:06.173Z,596.25
2022-08-17T12:30:06.145Z,601.88
2022-08-17T12:31:06.130Z,607.50
2022-08-17T12:32:06.130Z,613.13
2022-08-17T12:33:06.112Z,613.13
2022-08-17T12:34:06.118Z,613.13
2022-08-17T12:35:06.100Z,613.13
2022-08-17T12:36:06.092Z,607.50
2022-08-17T12:37:06.081Z,618.75
2022-08-17T12:38:06.061Z,635.63
2022-08-17T12:39:14.611Z,635.63
2022-08-17T12:40:06.146Z,646.88
2022-08-17T12:41:06.044Z,652.50
2022-08-17T12:42:06.024Z,652.50
2022-08-17T12:43:06.013Z,669.38
2022-08-17T12:44:06.027Z,691.88
2022-08-17T12:45:05.996Z,697.50
2022-08-17T12:46:13.222Z,708.75
2022-08-17T12:47:05.976Z,720.00
2022-08-17T12:48:05.968Z,725.63
2022-08-17T12:49:05.972Z,731.25
2022-08-17T12:50:05.974Z,759.38
2022-08-17T12:51:05.950Z,781.88
2022-08-17T12:52:05.942Z,731.25
2022-08-17T12:53:05.922Z,765.00
2022-08-17T12:54:05.937Z,810.00
2022-08-17T12:55:05.913Z,815.63
2022-08-17T12:56:05.896Z,821.25
2022-08-17T12:57:05.889Z,832.50
2022-08-17T12:58:05.897Z,838.13
2022-08-17T12:59:05.882Z,849.38
2022-08-17T13:00:05.860Z,855.00
2022-08-17T13:01:05.852Z,860.63
2022-08-17T13:02:05.905Z,843.75
2022-08-17T13:03:05.836Z,838.13
2022-08-17T13:04:05.840Z,787.50
2022-08-17T13:05:05.825Z,888.75
2022-08-17T13:06:05.822Z,843.75
2022-08-17T13:07:05.801Z,781.88
2022-08-17T13:08:05.793Z,736.88
2022-08-17T13:09:05.797Z,793.13
2022-08-17T13:10:05.787Z,826.88
2022-08-17T13:11:05.777Z,810.00
2022-08-17T13:12:05.772Z,776.25
2022-08-17T13:13:05.751Z,877.50
2022-08-17T13:14:05.759Z,950.63
2022-08-17T13:15:05.743Z,1175.63
2022-08-17T13:16:05.736Z,1260.00
2022-08-17T13:17:11.060Z,1271.25
2022-08-17T13:18:05.707Z,1147.50
2022-08-17T13:19:05.716Z,1085.63
2022-08-17T13:20:05.699Z,995.63
2022-08-17T13:21:05.689Z,2570.63
2022-08-17T13:22:05.671Z,2565.00
2022-08-17T13:23:11.478Z,2458.13
2022-08-17T13:24:05.664Z,1248.75
2022-08-17T13:25:05.658Z,2604.38
2022-08-17T13:26:05.633Z,2767.50
2022-08-17T13:27:08.181Z,2739.38
2022-08-17T13:28:05.617Z,2660.63
2022-08-17T13:29:05.628Z,2936.25
2022-08-17T13:30:05.605Z,2621.25
2022-08-17T13:31:05.599Z,1625.63
2022-08-17T13:32:05.583Z,1890.00
2022-08-17T13:33:05.573Z,2655.00
2022-08-17T13:34:05.592Z,2525.63
2022-08-17T13:35:14.461Z,2610.00
2022-08-17T13:36:05.582Z,2660.63
2022-08-17T13:37:05.541Z,1265.63
2022-08-17T13:38:05.544Z,2390.63
2022-08-17T13:39:05.534Z,2745.00
2022-08-17T13:40:05.682Z,2655.00
2022-08-17T13:41:05.515Z,2407.50
2022-08-17T13:42:05.521Z,2818.13
2022-08-17T13:43:05.505Z,2863.13
2022-08-17T13:44:05.495Z,1215.00
2022-08-17T13:45:32.240Z,2480.63
2022-08-17T13:46:05.468Z,1710.00
2022-08-17T13:47:05.463Z,2311.88
2022-08-17T13:48:05.467Z,1113.75
2022-08-17T13:49:05.465Z,950.63
2022-08-17T13:50:05.453Z,883.13
2022-08-17T13:51:05.432Z,860.63
2022-08-17T13:52:05.422Z,843.75
2022-08-17T13:53:05.424Z,804.38
2022-08-17T13:56:36.964Z,765.00
2022-08-17T13:57:16.110Z,787.50
2022-08-17T13:58:16.106Z,810.00
2022-08-17T13:59:16.103Z,888.75
2022-08-17T14:00:16.094Z,933.75
2022-08-17T14:01:16.122Z,1170.00
2022-08-17T14:02:16.066Z,973.13
2022-08-17T14:03:16.061Z,928.13
2022-08-17T14:04:16.058Z,871.88
2022-08-17T14:05:16.062Z,821.25
2022-08-17T14:06:49.325Z,770.63
2022-08-17T14:26:57.090Z,725.63
2022-08-17T14:27:57.417Z,765.00
2022-08-17T14:28:57.203Z,798.75
2022-08-17T14:29:57.054Z,877.50
2022-08-17T14:30:57.047Z,849.38
2022-08-17T14:31:57.032Z,871.88
2022-08-17T14:32:57.013Z,922.50
2022-08-17T14:33:57.009Z,1119.38
2022-08-17T14:34:57.013Z,2643.75
2022-08-17T14:35:56.991Z,2722.50
2022-08-17T14:36:56.969Z,2536.88
2022-08-17T14:37:56.965Z,2446.88
2022-08-17T14:38:56.948Z,2610.00
2022-08-17T14:39:57.075Z,2587.50
2022-08-17T14:40:56.940Z,2520.00
2022-08-17T14:41:56.929Z,2536.88
2022-08-17T14:42:56.917Z,2491.88
2022-08-17T14:43:56.923Z,2413.13
2022-08-17T14:44:56.910Z,2390.63
2022-08-17T14:45:56.882Z,2227.50
2022-08-17T14:46:56.903Z,2227.50
2022-08-17T14:47:56.877Z,759.38
2022-08-17T14:48:57.627Z,663.75
2022-08-17T14:49:56.863Z,725.63
2022-08-17T14:50:56.864Z,731.25
2022-08-17T14:51:56.841Z,939.38
2022-08-17T14:52:58.012Z,1929.38
2022-08-17T14:53:56.816Z,2368.13
2022-08-17T14:54:56.836Z,1783.13
2022-08-17T14:55:56.812Z,1884.38
2022-08-17T14:57:22.635Z,1198.13
2022-08-17T14:57:56.794Z,1996.88
2022-08-17T14:58:56.788Z,2503.13
2022-08-17T14:59:56.785Z,1766.25
2022-08-17T15:00:56.766Z,2531.25
2022-08-17T15:01:56.755Z,2649.38
2022-08-17T15:02:56.749Z,2615.63
2022-08-17T15:03:56.734Z,2553.75
2022-08-17T15:04:56.755Z,2643.75
2022-08-17T15:05:56.730Z,2638.13
2022-08-17T15:06:56.726Z,2435.63
2022-08-17T15:07:56.706Z,2390.63
2022-08-17T15:08:56.711Z,2413.13
2022-08-17T15:09:56.693Z,2323.13
2022-08-17T15:10:56.709Z,2306.25
2022-08-17T15:11:56.675Z,2334.38
2022-08-17T15:12:56.681Z,2283.75
2022-08-17T15:13:56.661Z,2221.88
2022-08-17T15:14:56.657Z,2233.13
2022-08-17T15:15:56.693Z,2109.38
2022-08-17T15:16:56.654Z,2238.75
2022-08-17T15:17:57.071Z,1383.75
2022-08-17T15:18:56.640Z,781.88
2022-08-17T15:19:56.650Z,725.63
2022-08-17T15:20:56.643Z,765.00
2022-08-17T15:21:56.609Z,742.50
2022-08-17T15:22:56.616Z,759.38
2022-08-17T15:25:08.540Z,2041.88
2022-08-17T15:26:08.527Z,2002.50
2022-08-17T15:27:08.509Z,1985.63
2022-08-17T15:28:08.509Z,2047.50
2022-08-17T15:29:08.490Z,2154.38
2022-08-17T15:30:08.516Z,2193.75
2022-08-17T15:31:08.505Z,2148.75
2022-08-17T15:32:08.480Z,2036.25
2022-08-17T15:33:08.468Z,1929.38
2022-08-17T15:34:08.721Z,1946.25
2022-08-17T15:35:08.449Z,2036.25
2022-08-17T15:36:08.459Z,2036.25
2022-08-17T15:37:08.436Z,1974.38
2022-08-17T15:38:11.989Z,1946.25
2022-08-17T15:39:08.437Z,1906.88
2022-08-17T15:40:08.477Z,1968.75
2022-08-17T15:41:08.432Z,1996.88
2022-08-17T15:42:08.414Z,2041.88
2022-08-17T15:43:08.406Z,2036.25
2022-08-17T15:44:08.388Z,2041.88
2022-08-17T15:45:08.384Z,1940.63
2022-08-17T15:46:08.401Z,1794.38
2022-08-17T15:47:08.377Z,1783.13
2022-08-17T15:48:08.374Z,1816.88
2022-08-17T15:49:08.363Z,1828.13
2022-08-17T15:50:08.356Z,1721.25
2022-08-17T15:51:08.383Z,1715.63
2022-08-17T15:52:08.354Z,1749.38
2022-08-17T15:53:08.360Z,1760.63
2022-08-17T15:54:18.629Z,1687.50
2022-08-17T15:55:08.337Z,1462.50
2022-08-17T15:56:08.334Z,1338.75
2022-08-17T15:57:08.330Z,1732.50
2022-08-17T15:58:08.321Z,1743.75
2022-08-17T15:59:08.316Z,1676.25
2022-08-17T16:00:08.308Z,1648.13
2022-08-17T16:01:16.741Z,1636.88
2022-08-17T16:03:13.293Z,1203.75
2022-08-17T16:03:46.979Z,1535.63
2022-08-17T16:04:26.636Z,1389.38
2022-08-17T16:05:10.075Z,1102.50
2022-08-17T16:06:08.289Z,1563.75
2022-08-17T16:07:08.274Z,1732.50
2022-08-17T16:08:08.270Z,1710.00
2022-08-17T16:09:08.250Z,1704.38
2022-08-17T16:10:08.255Z,1681.88
2022-08-17T16:11:08.262Z,1648.13
2022-08-17T16:12:08.234Z,1721.25
2022-08-17T16:13:17.605Z,1788.75
2022-08-17T16:14:08.221Z,1715.63
2022-08-17T16:15:08.216Z,1552.50
2022-08-17T16:16:08.227Z,1395.00
2022-08-17T16:17:38.990Z,1591.88
2022-08-17T16:18:21.031Z,1614.38
2022-08-17T16:19:21.022Z,1620.00
2022-08-17T16:20:21.144Z,1614.38
2022-08-17T16:21:21.026Z,1575.00
2022-08-17T16:22:21.013Z,1513.13
2022-08-17T16:23:21.008Z,1530.00
2022-08-17T16:24:20.994Z,1586.25
2022-08-17T16:25:21.019Z,1569.38
2022-08-17T16:26:20.977Z,1541.25
2022-08-17T16:27:20.987Z,1597.50
2022-08-17T16:28:20.971Z,1591.88
2022-08-17T16:29:20.980Z,1569.38
2022-08-17T16:30:20.985Z,1597.50
2022-08-17T16:31:20.978Z,1563.75
2022-08-17T16:32:20.960Z,1524.38
2022-08-17T16:33:20.950Z,1546.88
2022-08-17T16:34:20.991Z,1496.25
2022-08-17T16:35:20.951Z,1496.25
2022-08-17T16:36:20.931Z,1473.75
2022-08-17T16:37:20.926Z,1423.13
2022-08-17T16:38:20.918Z,1507.50
2022-08-17T16:39:20.914Z,1541.25
2022-08-17T16:40:20.921Z,1530.00
2022-08-17T16:41:20.895Z,1479.38
2022-08-17T16:42:20.898Z,1434.38
2022-08-17T16:43:20.884Z,1423.13
2022-08-17T16:44:20.881Z,1428.75
2022-08-17T16:45:20.894Z,1417.50
2022-08-17T16:46:20.876Z,1383.75
2022-08-17T16:47:20.872Z,1327.50
2022-08-17T16:48:20.856Z,1333.13
2022-08-17T16:49:25.799Z,1338.75
2022-08-17T16:50:20.855Z,1305.00
2022-08-17T16:51:20.850Z,1231.88
2022-08-17T16:52:32.373Z,1288.13
2022-08-17T16:53:20.840Z,1288.13
2022-08-17T16:54:20.824Z,1254.38
2022-08-17T16:55:20.831Z,1192.50
2022-08-17T16:56:20.820Z,1029.38
2022-08-17T16:57:20.805Z,945.00
2022-08-17T16:58:20.800Z,860.63
2022-08-17T16:59:31.071Z,765.00
2022-08-17T17:00:20.837Z,731.25
2022-08-17T17:01:20.844Z,787.50
2022-08-17T17:02:20.775Z,973.13
2022-08-17T17:03:20.830Z,793.13
2022-08-17T17:04:20.768Z,753.75
2022-08-17T17:05:20.754Z,691.88
2022-08-17T17:06:20.757Z,444.38
2022-08-17T17:07:20.748Z,416.25
2022-08-17T17:08:20.739Z,393.75
2022-08-17T17:09:20.734Z,382.50
2022-08-17T17:10:20.725Z,388.13
2022-08-17T17:11:20.718Z,371.25
2022-08-17T17:12:21.003Z,365.63
2022-08-17T17:13:20.700Z,360.00
2022-08-17T17:14:20.689Z,337.50
2022-08-17T17:15:22.295Z,337.50
2022-08-17T17:16:20.687Z,331.88
